Time;durP1;ratioP1;P1;durP2;ratioP2;P2;SDS_P1;SDS_P2;PMS_P1;PMS_P2;Temp;Humidity;BMP_temperature;BMP_pressure;BME280_temperature;BME280_humidity;BME280_pressure;Samples;Min_cycle;Max_cycle;Signal;HPM_P1;HPM_P2
2022/06/13 00:00:46;;;;;;;;;;;;;;;22.05;49.79;102132.28;7291052;19;153210;-55
2022/06/13 00:03:12;;;;;;;;;;;;;;;22.04;50.11;102126.94;7286599;19;153635;-55
2022/06/13 00:05:39;;;;;;;;;;;;;;;22.05;49.86;102126.66;7282775;19;155063;-55
2022/06/13 00:08:06;;;;;;;;;;;;;;;22.07;50.12;102124.41;7284448;19;151791;-55
2022/06/13 00:10:40;;;;;;;;;;;;;;;22.08;49.99;102131.72;7284391;19;152603;-54
2022/06/13 00:13:16;;;;;;;;;;;;;;;22.04;50.02;102130.59;7280561;19;153465;-54
2022/06/13 00:15:43;;;;;;;;;;;;;;;22.04;49.62;102130.59;7285129;19;152049;-54
2022/06/13 00:18:10;;;;;;;;;;;;;;;22.05;49.50;102132.28;7280323;19;154957;-55
2022/06/13 00:20:45;;;;;;;;;;;;;;;22.07;49.83;102129.22;7283600;19;153914;-55
2022/06/13 00:23:12;;;;;;;;;;;;;;;22.08;49.81;102130.88;7292328;19;151593;-55
2022/06/13 00:25:39;;;;;;;;;;;;;;;22.07;49.71;102132.88;7279645;19;154551;-55
2022/06/13 00:28:06;;;;;;;;;;;;;;;22.06;49.60;102136.81;7284366;19;152399;-55
2022/06/13 00:30:43;;;;;;;;;;;;;;;22.06;50.06;102130.34;7284296;19;155235;-56
2022/06/13 00:33:16;;;;;;;;;;;;;;;22.06;49.58;102135.97;7282261;19;153783;-54
2022/06/13 00:35:43;;;;;;;;;;;;;;;22.05;49.84;102137.94;7284627;19;154099;-56
2022/06/13 00:38:11;;;;;;;;;;;;;;;22.03;50.00;102131.72;7280160;19;153273;-56
2022/06/13 00:40:50;;;;;;;;;;;;;;;22.03;49.78;102131.72;7281960;19;153286;-56
2022/06/13 00:43:17;;;;;;;;;;;;;;;22.09;49.80;102126.94;7282403;19;152233;-54
2022/06/13 00:45:44;;;;;;;;;;;;;;;22.09;49.64;102124.09;7286473;19;153423;-56
2022/06/13 00:48:12;;;;;;;;;;;;;;;22.06;49.50;102122.72;7284232;19;151923;-56
2022/06/13 00:50:53;;;;;;;;;;;;;;;22.06;50.05;102124.69;7282845;19;153726;-56
2022/06/13 00:53:22;;;;;;;;;;;;;;;22.03;49.88;102122.47;7283336;19;153907;-55
2022/06/13 00:55:51;;;;;;;;;;;;;;;22.02;49.99;102120.78;7281483;19;151897;-56
2022/06/13 00:58:18;;;;;;;;;;;;;;;22.03;50.37;102119.66;7282781;19;152791;-55
2022/06/13 01:00:55;;;;;;;;;;;;;;;22.01;49.80;102122.75;7281777;19;153103;-55
2022/06/13 01:03:22;;;;;;;;;;;;;;;21.99;50.24;102121.34;7283143;19;151903;-55
2022/06/13 01:05:49;;;;;;;;;;;;;;;22.01;49.88;102127.53;7284792;19;152941;-53
2022/06/13 01:08:17;;;;;;;;;;;;;;;21.99;50.13;102124.16;7281854;19;152884;-56
2022/06/13 01:13:39;;;;;;;;;;;;;;;22.00;50.02;102123.88;7282161;19;153278;-55
2022/06/13 01:16:28;;;;;;;;;;;;;;;21.99;50.07;102121.34;7280628;19;152160;-54
2022/06/13 01:18:55;;;;;;;;;;;;;;;21.98;49.92;102123.34;7281616;19;153080;-54
2022/06/13 01:21:42;;;;;;;;;;;;;;;22.02;49.74;102116.00;7282338;19;152170;-55
2022/06/13 01:24:08;;;;;;;;;;;;;;;22.05;49.87;102115.41;7282610;19;152367;-55
2022/06/13 01:26:55;;;;;;;;;;;;;;;22.06;50.05;102121.88;7278703;19;152546;-53
2022/06/13 01:29:25;;;;;;;;;;;;;;;22.06;49.50;102124.69;7289961;19;154250;-55
2022/06/13 01:32:21;;;;;;;;;;;;;;;22.03;49.92;102122.47;7287994;19;152578;-55
2022/06/13 01:34:56;;;;;;;;;;;;;;;22.07;49.98;102124.41;7285684;19;154045;-54
2022/06/13 01:37:23;;;;;;;;;;;;;;;22.05;50.03;102123.84;7289115;19;152151;-54
2022/06/13 01:39:53;;;;;;;;;;;;;;;22.09;49.67;102129.75;7288747;19;152937;-55
2022/06/13 01:42:40;;;;;;;;;;;;;;;22.07;50.00;102129.22;7287994;19;153792;-55
2022/06/13 01:45:23;;;;;;;;;;;;;;;22.07;49.94;102124.41;7287030;19;151922;-56
2022/06/13 01:48:07;;;;;;;;;;;;;;;22.07;50.16;102126.38;7288962;19;153314;-54
2022/06/13 01:50:58;;;;;;;;;;;;;;;22.08;49.78;102126.06;7285951;19;153241;-56
2022/06/13 01:53:25;;;;;;;;;;;;;;;22.13;49.62;102134.50;7294240;19;151957;-56
2022/06/13 01:55:59;;;;;;;;;;;;;;;22.11;50.00;102130.31;7285261;19;153920;-54
2022/06/13 01:58:28;;;;;;;;;;;;;;;22.09;49.93;102129.75;7286477;19;152386;-54
2022/06/13 02:01:03;;;;;;;;;;;;;;;22.11;50.23;102133.13;7288926;19;153365;-54
2022/06/13 02:03:34;;;;;;;;;;;;;;;22.09;49.95;102132.56;7285464;19;153148;-53
2022/06/13 02:06:22;;;;;;;;;;;;;;;22.04;50.21;102136.25;7286892;19;152725;-55
2022/06/13 02:08:52;;;;;;;;;;;;;;;22.01;50.16;102131.19;7288867;19;152559;-55
2022/06/13 02:11:23;;;;;;;;;;;;;;;21.99;50.26;102138.22;7287082;19;154818;-55
2022/06/13 02:13:59;;;;;;;;;;;;;;;21.98;50.71;102136.56;7289128;19;151676;-56
2022/06/13 02:16:30;;;;;;;;;;;;;;;21.94;50.47;102139.09;7294987;19;153582;-55
2022/06/13 02:19:00;;;;;;;;;;;;;;;21.93;50.44;102136.59;7287664;19;151510;-56
2022/06/13 02:21:32;;;;;;;;;;;;;;;21.95;50.76;102137.97;7285573;19;153466;-55
2022/06/13 02:24:03;;;;;;;;;;;;;;;21.93;50.40;102130.97;7283646;19;153774;-55
2022/06/13 02:26:34;;;;;;;;;;;;;;;21.91;50.69;102141.63;7286217;19;151844;-55
2022/06/13 02:29:14;;;;;;;;;;;;;;;21.92;50.72;102134.88;7288623;19;152999;-54
2022/06/13 02:31:43;;;;;;;;;;;;;;;21.93;50.80;102139.41;7284534;19;154136;-55
2022/06/13 02:34:14;;;;;;;;;;;;;;;21.91;50.52;102148.09;7289558;19;151970;-56
2022/06/13 02:36:45;;;;;;;;;;;;;;;21.90;50.92;102148.38;7286502;19;153521;-54
2022/06/13 02:39:24;;;;;;;;;;;;;;;21.90;50.83;102145.56;7294239;19;154004;-56
2022/06/13 02:41:56;;;;;;;;;;;;;;;21.90;51.06;102139.94;7285115;19;152559;-56
2022/06/13 02:44:24;;;;;;;;;;;;;;;21.97;50.54;102146.13;7286620;19;153926;-55
2022/06/13 02:46:56;;;;;;;;;;;;;;;21.93;51.02;102143.06;7284414;19;151866;-55
2022/06/13 02:49:46;;;;;;;;;;;;;;;21.89;50.67;102144.75;7287019;19;152784;-54
2022/06/13 02:52:18;;;;;;;;;;;;;;;21.94;50.92;102141.91;7285558;19;153801;-54
2022/06/13 02:54:54;;;;;;;;;;;;;;;21.92;50.73;102140.50;7287768;19;151729;-55
2022/06/13 02:57:40;;;;;;;;;;;;;;;21.93;50.90;102142.22;7286034;19;153394;-54
2022/06/13 03:00:25;;;;;;;;;;;;;;;21.89;50.83;102136.31;7285300;19;153582;-55
2022/06/13 03:02:52;;;;;;;;;;;;;;;21.89;51.26;102143.91;7295581;19;153377;-56
2022/06/13 03:05:33;;;;;;;;;;;;;;;21.87;51.15;102140.53;7285473;19;153234;-55
2022/06/13 03:08:03;;;;;;;;;;;;;;;21.85;51.22;102149.25;7286021;19;152165;-55
2022/06/13 03:10:36;;;;;;;;;;;;;;;21.86;51.24;102141.66;7285167;19;153670;-56
2022/06/13 03:13:12;;;;;;;;;;;;;;;21.86;51.09;102144.47;7284276;19;153540;-55
2022/06/13 03:15:48;;;;;;;;;;;;;;;21.85;50.78;102154.06;7284924;19;152016;-55
2022/06/13 03:18:19;;;;;;;;;;;;;;;21.86;51.15;102161.34;7286346;19;152945;-55
2022/06/13 03:21:18;;;;;;;;;;;;;;;21.86;51.26;102152.91;7285889;19;152421;-55
2022/06/13 03:23:50;;;;;;;;;;;;;;;21.88;51.19;102153.47;7291882;19;151808;-55
2022/06/13 03:26:22;;;;;;;;;;;;;;;21.88;51.13;102148.69;7282578;19;153525;-54
2022/06/13 03:28:52;;;;;;;;;;;;;;;21.87;51.01;102143.34;7286875;19;151865;-56
2022/06/13 03:31:28;;;;;;;;;;;;;;;21.85;50.97;102148.44;7285184;19;152804;-55
2022/06/13 03:33:58;;;;;;;;;;;;;;;21.85;51.07;102145.63;7285281;19;153497;-56
2022/06/13 03:36:38;;;;;;;;;;;;;;;21.84;51.22;102150.41;7286141;19;152046;-56
2022/06/13 03:39:14;;;;;;;;;;;;;;;21.83;50.90;102140.25;7285834;19;152872;-56
2022/06/13 03:41:49;;;;;;;;;;;;;;;21.83;51.24;102145.88;7281462;19;154037;-54
2022/06/13 03:44:19;;;;;;;;;;;;;;;21.82;51.35;102154.59;7285241;19;151598;-56
2022/06/13 03:46:53;;;;;;;;;;;;;;;21.84;51.33;102160.81;7290233;19;153342;-55
2022/06/13 03:49:23;;;;;;;;;;;;;;;21.83;51.34;102157.16;7285031;19;151889;-54
2022/06/13 03:51:54;;;;;;;;;;;;;;;21.81;51.25;102156.56;7286677;19;152564;-54
2022/06/13 03:54:24;;;;;;;;;;;;;;;21.85;51.18;102162.50;7282906;19;153430;-56
2022/06/13 03:57:03;;;;;;;;;;;;;;;21.86;51.27;102167.81;7284990;19;151940;-54
2022/06/13 04:00:06;;;;;;;;;;;;;;;21.83;51.51;102164.75;7282293;19;152977;-53
2022/06/13 04:02:34;;;;;;;;;;;;;;;21.82;51.20;102171.50;7279188;19;153844;-56
2022/06/13 04:05:00;;;;;;;;;;;;;;;21.83;51.38;102173.19;7283558;19;151695;-54
2022/06/13 04:07:29;;;;;;;;;;;;;;;21.82;51.06;102177.97;7282626;19;152768;-57
2022/06/13 04:09:59;;;;;;;;;;;;;;;21.81;51.49;102181.06;7291479;19;153285;-54
2022/06/13 04:12:26;;;;;;;;;;;;;;;21.85;51.07;102185.81;7284400;19;153156;-56
2022/06/13 04:15:02;;;;;;;;;;;;;;;21.88;51.38;102198.50;7284301;19;153244;-56
2022/06/13 04:17:46;;;;;;;;;;;;;;;21.87;50.91;102191.16;7283711;19;152160;-55
2022/06/13 04:20:13;;;;;;;;;;;;;;;21.89;51.14;102197.38;7286095;19;152645;-55
2022/06/13 04:22:55;;;;;;;;;;;;;;;21.88;50.90;102201.31;7283247;19;152195;-54
2022/06/13 04:25:25;;;;;;;;;;;;;;;21.85;51.32;102197.06;7283935;19;152041;-56
2022/06/13 04:27:55;;;;;;;;;;;;;;;21.88;51.28;102202.16;7279480;19;153381;-55
2022/06/13 04:30:26;;;;;;;;;;;;;;;21.84;51.36;102198.22;7282290;19;152286;-54
2022/06/13 04:32:53;;;;;;;;;;;;;;;21.91;51.26;102201.56;7292960;19;151709;-54
2022/06/13 04:35:20;;;;;;;;;;;;;;;21.89;50.95;102195.41;7283946;19;154054;-55
2022/06/13 04:37:47;;;;;;;;;;;;;;;21.93;50.96;102204.13;7281081;19;152040;-55
2022/06/13 04:40:19;;;;;;;;;;;;;;;21.89;50.80;102206.66;7282027;19;152571;-54
2022/06/13 04:42:47;;;;;;;;;;;;;;;21.84;51.17;102208.63;7283236;19;153987;-55
2022/06/13 04:45:19;;;;;;;;;;;;;;;21.85;51.01;102202.69;7285169;19;151725;-55
2022/06/13 04:47:48;;;;;;;;;;;;;;;21.88;50.96;102206.94;7282075;19;152157;-56
2022/06/13 04:50:16;;;;;;;;;;;;;;;21.86;50.91;102212.00;7281966;19;156224;-55
2022/06/13 04:52:45;;;;;;;;;;;;;;;21.84;50.97;102219.88;7284459;19;152000;-56
2022/06/13 04:55:18;;;;;;;;;;;;;;;21.84;51.01;102215.09;7289485;19;153636;-55
2022/06/13 04:57:45;;;;;;;;;;;;;;;21.83;51.15;102215.38;7282739;19;152006;-55
2022/06/13 05:00:12;;;;;;;;;;;;;;;21.79;51.18;102220.75;7283085;19;152490;-55
2022/06/13 05:02:41;;;;;;;;;;;;;;;21.85;51.45;102227.22;7282450;19;153400;-56
2022/06/13 05:05:28;;;;;;;;;;;;;;;21.82;51.46;102227.75;7288646;19;151805;-56
2022/06/13 05:07:55;;;;;;;;;;;;;;;21.81;51.22;102229.72;7286897;19;152679;-55
2022/06/13 05:10:24;;;;;;;;;;;;;;;21.85;51.22;102227.22;7289049;19;153305;-53
2022/06/13 05:12:50;;;;;;;;;;;;;;;21.84;51.14;102225.53;7289652;19;152042;-55
2022/06/13 05:15:19;;;;;;;;;;;;;;;21.81;51.21;102231.69;7290018;19;153598;-56
2022/06/13 05:18:01;;;;;;;;;;;;;;;21.76;51.31;102229.75;7295616;19;151978;-55
2022/06/13 05:20:27;;;;;;;;;;;;;;;21.79;51.49;102240.44;7288846;19;153804;-54
2022/06/13 05:22:54;;;;;;;;;;;;;;;21.79;51.53;102236.78;7288236;19;153844;-56
2022/06/13 05:25:24;;;;;;;;;;;;;;;21.80;51.52;102230.03;7290152;19;152878;-55
2022/06/13 05:27:50;;;;;;;;;;;;;;;21.76;51.70;102226.13;7286546;19;153313;-55
2022/06/13 05:30:17;;;;;;;;;;;;;;;21.83;51.76;102221.84;7287406;19;153283;-55
2022/06/13 05:32:44;;;;;;;;;;;;;;;21.83;51.84;102230.31;7289351;19;151584;-55
2022/06/13 05:35:12;;;;;;;;;;;;;;;21.78;51.82;102237.91;7288215;19;153240;-55
2022/06/13 05:37:38;;;;;;;;;;;;;;;21.77;51.92;102239.03;7295352;19;153628;-56
2022/06/13 05:40:05;;;;;;;;;;;;;;;21.79;52.04;102236.78;7288537;19;152500;-56
2022/06/13 05:42:32;;;;;;;;;;;;;;;21.75;51.81;102239.34;7288622;19;154444;-55
2022/06/13 05:44:59;;;;;;;;;;;;;;;21.73;52.25;102238.75;7287348;19;152050;-55
2022/06/13 05:47:25;;;;;;;;;;;;;;;21.73;51.84;102245.22;7287811;19;152576;-53
2022/06/13 05:49:52;;;;;;;;;;;;;;;21.73;51.82;102241.56;7287516;19;153219;-55
2022/06/13 05:52:19;;;;;;;;;;;;;;;21.72;52.08;102251.13;7288552;19;151773;-54
2022/06/13 05:54:50;;;;;;;;;;;;;;;21.72;51.87;102245.50;7287536;19;152627;-53
2022/06/13 05:57:16;;;;;;;;;;;;;;;21.71;52.11;102250.28;7288353;19;154508;-54
2022/06/13 05:59:48;;;;;;;;;;;;;;;21.70;52.25;102254.25;7295982;19;151580;-55
2022/06/13 06:02:15;;;;;;;;;;;;;;;21.68;52.22;102244.41;7285566;19;154948;-55
2022/06/13 06:04:51;;;;;;;;;;;;;;;21.68;52.24;102255.66;7289632;19;151788;-56
2022/06/13 06:07:26;;;;;;;;;;;;;;;21.68;52.27;102262.13;7286643;19;153392;-54
2022/06/13 06:09:53;;;;;;;;;;;;;;;21.68;51.89;102266.91;7286959;19;154247;-55
2022/06/13 06:12:19;;;;;;;;;;;;;;;21.67;52.30;102268.03;7285005;19;152194;-55
2022/06/13 06:14:58;;;;;;;;;;;;;;;21.66;52.42;102267.22;7287866;19;152655;-54
2022/06/13 06:17:25;;;;;;;;;;;;;;;21.74;52.38;102266.63;7285462;19;154021;-55
2022/06/13 06:19:52;;;;;;;;;;;;;;;21.80;52.97;102261.84;7288268;19;151785;-54
2022/06/13 06:22:19;;;;;;;;;;;;;;;21.83;52.33;102261.25;7292967;19;152904;-56
2022/06/13 06:24:54;;;;;;;;;;;;;;;21.87;52.44;102265.19;7287145;19;152065;-54
2022/06/13 06:27:21;;;;;;;;;;;;;;;21.93;52.14;102266.03;7287339;19;153448;-55
2022/06/13 06:29:48;;;;;;;;;;;;;;;21.93;51.63;102266.88;7283440;19;154287;-54
2022/06/13 06:32:14;;;;;;;;;;;;;;;21.99;51.46;102262.06;7287885;19;152007;-56
2022/06/13 06:34:53;;;;;;;;;;;;;;;22.01;51.94;102265.44;7286385;19;153224;-56
2022/06/13 06:37:25;;;;;;;;;;;;;;;22.05;49.75;102261.78;7286138;19;153882;-56
2022/06/13 06:39:52;;;;;;;;;;;;;;;21.95;45.29;102266.59;7287099;19;151823;-55
2022/06/13 06:42:19;;;;;;;;;;;;;;;21.86;44.42;102269.09;7286114;19;152673;-55
2022/06/13 06:45:06;;;;;;;;;;;;;;;21.62;42.87;102282.13;7292193;19;155530;-54
2022/06/13 06:47:32;;;;;;;;;;;;;;;21.45;43.10;102285.22;7286797;19;152595;-55
2022/06/13 06:49:59;;;;;;;;;;;;;;;21.53;42.90;102278.19;7285324;19;153495;-55
2022/06/13 06:52:26;;;;;;;;;;;;;;;21.44;42.54;102291.94;7285590;19;151850;-56
2022/06/13 07:00:23;;;;;;;;;;;;;;;21.40;42.36;102287.19;7288139;19;152318;-55
2022/06/13 07:02:50;;;;;;;;;;;;;;;21.27;42.68;102278.19;7287431;19;152661;-53
2022/06/13 07:05:16;;;;;;;;;;;;;;;21.33;42.19;102281.00;7283038;19;153853;-54
2022/06/13 07:07:43;;;;;;;;;;;;;;;21.32;42.01;102291.41;7291637;19;152013;-56
2022/06/13 07:10:11;;;;;;;;;;;;;;;21.15;42.31;102297.31;7285736;19;153462;-54
2022/06/13 07:12:38;;;;;;;;;;;;;;;21.04;41.93;102297.53;7286921;19;153034;-55
2022/06/13 07:15:05;;;;;;;;;;;;;;;21.11;41.68;102298.13;7284278;19;153575;-54
2022/06/13 07:17:31;;;;;;;;;;;;;;;21.10;42.57;102290.81;7284630;19;153253;-56
2022/06/13 07:19:58;;;;;;;;;;;;;;;21.16;42.82;102289.72;7285802;19;152470;-55
2022/06/13 07:22:25;;;;;;;;;;;;;;;21.18;43.71;102295.88;7287627;19;153489;-54
2022/06/13 07:24:52;;;;;;;;;;;;;;;21.23;44.10;102296.75;7283875;19;153013;-53
2022/06/13 07:27:19;;;;;;;;;;;;;;;21.25;44.42;102290.84;7292833;19;151575;-54
2022/06/13 07:29:45;;;;;;;;;;;;;;;21.27;44.17;102297.03;7284346;19;153808;-54
2022/06/13 07:32:16;;;;;;;;;;;;;;;21.32;45.01;102290.56;7284792;19;155569;-56
2022/06/13 07:34:57;;;;;;;;;;;;;;;21.32;45.02;102296.19;7284986;19;153202;-55
2022/06/13 07:40:11;;;;;;;;;;;;;;;21.33;44.71;102297.88;7283463;19;151880;-56
2022/06/13 07:42:41;;;;;;;;;;;;;;;21.34;45.07;102305.19;7285966;19;153454;-55
2022/06/13 07:45:11;;;;;;;;;;;;;;;21.35;44.97;102295.63;7281938;19;153775;-55
2022/06/13 07:47:58;;;;;;;;;;;;;;;21.36;44.99;102302.91;7284761;19;152376;-56
2022/06/13 07:50:25;;;;;;;;;;;;;;;21.39;45.09;102296.75;7292405;19;155140;-56
2022/06/13 07:52:53;;;;;;;;;;;;;;;21.39;45.61;102308.84;7284239;19;152346;-54
2022/06/13 07:55:22;;;;;;;;;;;;;;;21.42;45.66;102307.44;7286004;19;153283;-55
2022/06/13 07:57:49;;;;;;;;;;;;;;;21.41;45.46;102308.56;7282794;19;153188;-56
2022/06/13 08:00:22;;;;;;;;;;;;;;;21.40;45.51;102306.84;7285245;19;151775;-55
2022/06/13 08:02:49;;;;;;;;;;;;;;;21.40;45.33;102298.41;7285376;19;153622;-56
2022/06/13 08:05:16;;;;;;;;;;;;;;;21.41;45.65;102300.97;7284952;19;153599;-54
2022/06/13 08:07:43;;;;;;;;;;;;;;;21.41;45.32;102300.97;7282002;19;152080;-53
2022/06/13 08:10:10;;;;;;;;;;;;;;;21.42;45.43;102308.28;7284075;19;153362;-55
2022/06/13 08:12:38;;;;;;;;;;;;;;;21.43;45.63;102301.53;7291560;19;154076;-55
2022/06/13 08:15:05;;;;;;;;;;;;;;;21.45;45.64;102309.66;7283026;19;153635;-54
2022/06/13 08:17:32;;;;;;;;;;;;;;;21.46;45.88;102308.56;7284299;19;153338;-55
2022/06/13 08:19:58;;;;;;;;;;;;;;;21.46;45.46;102312.22;7284367;19;151558;-55
2022/06/13 08:22:25;;;;;;;;;;;;;;;21.47;45.48;102313.06;7285504;19;152917;-56
2022/06/13 08:24:52;;;;;;;;;;;;;;;21.47;45.69;102311.09;7282243;19;153150;-55
2022/06/13 08:27:18;;;;;;;;;;;;;;;21.47;45.82;102315.88;7285239;19;151768;-54
2022/06/13 08:29:45;;;;;;;;;;;;;;;21.46;45.53;102315.03;7284822;19;152628;-55
2022/06/13 08:32:17;;;;;;;;;;;;;;;21.46;45.97;102315.03;7282449;19;154076;-55
2022/06/13 08:34:55;;;;;;;;;;;;;;;21.49;45.60;102316.41;7292169;19;152449;-55
2022/06/13 08:37:22;;;;;;;;;;;;;;;21.48;45.59;102318.41;7282341;19;154129;-53
2022/06/13 08:39:48;;;;;;;;;;;;;;;21.46;45.77;102317.84;7286753;19;151697;-54
2022/06/13 08:42:38;;;;;;;;;;;;;;;21.49;45.96;102314.44;7289388;19;153119;-53
2022/06/13 08:45:23;;;;;;;;;;;;;;;21.49;45.83;102319.22;7286664;19;153537;-55
2022/06/13 08:47:58;;;;;;;;;;;;;;;21.49;45.66;102308.81;7288961;19;152293;-54
2022/06/13 08:50:43;;;;;;;;;;;;;;;21.48;45.72;102304.34;7287152;19;153282;-54
2022/06/13 08:53:24;;;;;;;;;;;;;;;21.49;45.50;102299.53;7290378;19;153607;-56
2022/06/13 08:55:54;;;;;;;;;;;;;;;21.49;45.43;102305.16;7287514;19;154651;-55
2022/06/13 08:58:33;;;;;;;;;;;;;;;21.50;45.59;102310.53;7293841;19;153824;-54
2022/06/13 09:01:03;;;;;;;;;;;;;;;21.52;45.82;102308.28;7289873;19;151640;-55
2022/06/13 09:03:40;;;;;;;;;;;;;;;21.54;45.39;102316.41;7289978;19;153462;-55
2022/06/13 09:06:15;;;;;;;;;;;;;;;21.53;45.81;102314.75;7287821;19;153400;-54
2022/06/13 09:08:47;;;;;;;;;;;;;;;21.54;45.26;102310.78;7288818;19;152827;-55
2022/06/13 09:11:18;;;;;;;;;;;;;;;21.55;45.11;102307.72;7289758;19;152624;-53
2022/06/13 09:14:04;;;;;;;;;;;;;;;21.53;45.46;102309.13;7289875;19;153515;-56
2022/06/13 09:16:32;;;;;;;;;;;;;;;21.53;45.04;102315.56;7289639;19;151854;-56
2022/06/13 09:18:59;;;;;;;;;;;;;;;21.52;45.57;102313.91;7286332;19;153413;-52
2022/06/13 09:21:37;;;;;;;;;;;;;;;21.49;45.61;102322.88;7294719;19;153704;-54
2022/06/13 09:24:07;;;;;;;;;;;;;;;21.54;45.55;102311.63;7228400;19;156182;-55
2022/06/13 09:26:51;;;;;;;;;;;;;;;21.58;45.37;102312.75;7283926;19;153958;-56
2022/06/13 09:29:30;;;;;;;;;;;;;;;21.61;45.27;102315.03;7284355;19;152634;-55
2022/06/13 09:32:04;;;;;;;;;;;;;;;21.62;45.12;102316.69;7287723;19;152949;-54
2022/06/13 09:34:51;;;;;;;;;;;;;;;21.64;44.96;102311.63;7286421;19;153633;-53
2022/06/13 09:37:30;;;;;;;;;;;;;;;21.65;44.71;102316.16;7283259;19;151979;-56
2022/06/13 09:40:00;;;;;;;;;;;;;;;21.66;44.98;102322.63;7285720;19;153423;-55
2022/06/13 09:42:49;;;;;;;;;;;;;;;21.68;44.68;102329.63;7292990;19;152832;-53
2022/06/13 09:45:30;;;;;;;;;;;;;;;21.70;45.07;102323.75;7285078;19;155372;-54
2022/06/13 09:48:06;;;;;;;;;;;;;;;21.68;44.79;102323.16;7285158;19;154497;-56
2022/06/13 09:50:45;;;;;;;;;;;;;;;21.67;44.88;102325.13;7276643;19;153610;-54
2022/06/13 09:53:35;;;;;;;;;;;;;;;21.67;44.54;102330.75;7285610;19;153210;-55
2022/06/13 09:56:03;;;;;;;;;;;;;;;21.69;44.87;102336.09;7284991;19;153982;-56
2022/06/13 09:58:29;;;;;;;;;;;;;;;21.68;44.90;102335.25;7282350;19;151837;-56
2022/06/13 10:01:04;;;;;;;;;;;;;;;21.68;45.05;102337.22;7284972;19;152678;-53
2022/06/13 10:03:44;;;;;;;;;;;;;;;21.70;44.79;102343.44;7283779;19;154465;-56
2022/06/13 10:06:30;;;;;;;;;;;;;;;21.69;44.81;102341.72;7293083;19;151948;-55
2022/06/13 10:09:08;;;;;;;;;;;;;;;21.67;44.48;102344.81;7282831;19;154290;-54
2022/06/13 10:11:42;;;;;;;;;;;;;;;21.68;44.38;102340.88;7285945;19;151861;-56
2022/06/13 10:14:16;;;;;;;;;;;;;;;21.67;44.43;102338.34;7282447;19;152564;-54
2022/06/13 10:17:01;;;;;;;;;;;;;;;21.65;44.77;102335.00;7283547;19;153342;-55
2022/06/13 10:19:37;;;;;;;;;;;;;;;21.68;44.56;102329.63;7283752;19;152260;-55
2022/06/13 10:22:08;;;;;;;;;;;;;;;21.71;44.31;102331.06;7284994;19;153527;-53
2022/06/13 10:24:56;;;;;;;;;;;;;;;21.70;44.20;102337.81;7281204;19;153776;-54
2022/06/13 10:27:45;;;;;;;;;;;;;;;21.68;44.62;102340.88;7281059;19;151910;-55
2022/06/13 10:30:17;;;;;;;;;;;;;;;21.66;44.61;102340.34;7289303;19;153164;-55
2022/06/13 10:32:54;;;;;;;;;;;;;;;21.65;44.50;102335.84;7284067;19;151963;-54
2022/06/13 10:35:37;;;;;;;;;;;;;;;21.62;44.56;102330.75;7285385;19;153524;-54
2022/06/13 10:38:28;;;;;;;;;;;;;;;21.60;44.85;102320.91;7282647;19;153203;-55
2022/06/13 10:41:04;;;;;;;;;;;;;;;21.59;44.41;102331.31;7285083;19;151865;-55
2022/06/13 10:43:31;;;;;;;;;;;;;;;21.60;44.69;102335.00;7284769;19;153314;-55
2022/06/13 10:45:58;;;;;;;;;;;;;;;21.62;44.31;102336.38;7284474;19;154733;-56
2022/06/13 10:48:30;;;;;;;;;;;;;;;21.69;44.52;102341.72;7283471;19;152200;-54
2022/06/13 10:50:58;;;;;;;;;;;;;;;21.73;44.52;102331.59;7282822;19;152435;-56
2022/06/13 10:53:33;;;;;;;;;;;;;;;21.73;44.53;102325.97;7289268;19;154576;-54
2022/06/13 10:56:05;;;;;;;;;;;;;;;21.68;44.38;102329.63;7284949;19;152207;-53
2022/06/13 10:58:45;;;;;;;;;;;;;;;21.67;44.68;102325.13;7281858;19;154139;-55
2022/06/13 11:01:13;;;;;;;;;;;;;;;21.64;44.22;102317.25;7283618;19;153217;-55
2022/06/13 11:04:00;;;;;;;;;;;;;;;21.67;44.39;102310.22;7283460;19;153418;-55
2022/06/13 11:06:33;;;;;;;;;;;;;;;21.69;44.42;102322.88;7280937;19;154271;-54
2022/06/13 11:09:01;;;;;;;;;;;;;;;21.69;44.34;102320.06;7282893;19;152110;-54
2022/06/13 11:11:36;;;;;;;;;;;;;;;21.76;44.29;102321.75;7281948;19;152240;-56
2022/06/13 11:14:03;;;;;;;;;;;;;;;21.80;44.35;102314.44;7283714;19;154374;-55
2022/06/13 11:22:38;;;;;;;;;;;;;;;21.72;44.05;102308.25;7282047;19;151663;-56
2022/06/13 11:25:13;;;;;;;;;;;;;;;21.69;44.04;102316.41;7283596;19;153093;-54
2022/06/13 11:27:41;;;;;;;;;;;;;;;21.74;44.34;102310.78;7278958;19;153267;-55
2022/06/13 11:30:35;;;;;;;;;;;;;;;21.71;44.25;102312.19;7281025;19;152460;-56
2022/06/13 11:33:10;;;;;;;;;;;;;;;21.73;44.25;102309.94;7284056;19;152603;-54
2022/06/13 11:35:50;;;;;;;;;;;;;;;21.77;44.24;102301.78;7284191;19;153275;-54
2022/06/13 11:38:27;;;;;;;;;;;;;;;21.80;44.26;102306.84;7280918;19;152065;-54
2022/06/13 11:41:09;;;;;;;;;;;;;;;21.84;43.95;102304.31;7287441;19;153480;-54
2022/06/13 11:43:56;;;;;;;;;;;;;;;21.86;44.04;102299.22;7282750;19;152737;-54
2022/06/13 11:46:23;;;;;;;;;;;;;;;21.87;43.85;102293.31;7281831;19;153920;-54
2022/06/13 11:48:50;;;;;;;;;;;;;;;21.91;43.87;102290.75;7280579;19;154565;-54
2022/06/13 11:51:22;;;;;;;;;;;;;;;21.93;43.91;102285.75;7282647;19;151768;-55
2022/06/13 11:53:50;;;;;;;;;;;;;;;21.95;44.12;102298.38;7281510;19;153000;-55
2022/06/13 11:56:25;;;;;;;;;;;;;;;21.94;44.26;102293.88;7279352;19;155597;-56
2022/06/13 11:58:54;;;;;;;;;;;;;;;21.87;44.36;102292.47;7280919;19;151899;-54
2022/06/13 12:01:28;;;;;;;;;;;;;;;21.85;44.32;102286.31;7288496;19;152668;-56
2022/06/13 12:03:58;;;;;;;;;;;;;;;21.87;44.21;102295.28;7281276;19;151948;-56
2022/06/13 12:06:26;;;;;;;;;;;;;;;21.85;44.26;102283.50;7280122;19;153344;-55
2022/06/13 12:09:01;;;;;;;;;;;;;;;21.84;43.98;102288.28;7281909;19;153374;-55
2022/06/13 12:11:28;;;;;;;;;;;;;;;21.86;43.85;102291.63;7282823;19;152054;-56
2022/06/13 12:13:58;;;;;;;;;;;;;;;21.83;44.27;102283.75;7278965;19;152600;-55
2022/06/13 12:16:32;;;;;;;;;;;;;;;21.82;44.04;102282.06;7281021;19;153382;-56
2022/06/13 12:19:17;;;;;;;;;;;;;;;21.80;44.06;102277.88;7280832;19;152064;-56
2022/06/13 12:21:51;;;;;;;;;;;;;;;21.79;43.80;102274.22;7279327;19;153769;-55
2022/06/13 12:24:18;;;;;;;;;;;;;;;21.79;43.60;102274.22;7288763;19;153953;-54
2022/06/13 12:26:50;;;;;;;;;;;;;;;21.81;43.61;102273.91;7274155;19;153139;-55
2022/06/13 12:29:21;;;;;;;;;;;;;;;21.83;43.47;102278.13;7275280;19;153333;-54
2022/06/13 12:32:00;;;;;;;;;;;;;;;21.86;43.29;102271.06;7279528;19;152521;-54
2022/06/13 12:34:42;;;;;;;;;;;;;;;21.88;43.59;102271.66;7280526;19;152508;-56
2022/06/13 12:37:13;;;;;;;;;;;;;;;21.85;44.04;102269.41;7278924;19;153505;-55
2022/06/13 12:40:07;;;;;;;;;;;;;;;21.86;43.51;102265.44;7280235;19;152976;-54
2022/06/13 12:42:55;;;;;;;;;;;;;;;21.83;43.70;102266.03;7279781;19;152973;-53
2022/06/13 12:45:58;;;;;;;;;;;;;;;21.84;43.81;102277.00;7279696;19;152476;-53
2022/06/13 12:48:43;;;;;;;;;;;;;;;21.94;40.98;102268.56;7287518;19;152115;-55
2022/06/13 12:51:39;;;;;;;;;;;;;;;21.86;42.55;102268.25;7279834;19;151919;-54
2022/06/13 12:54:21;;;;;;;;;;;;;;;21.88;41.16;102266.88;7277911;19;153507;-56
2022/06/13 12:57:08;;;;;;;;;;;;;;;21.85;42.19;102258.16;7278583;19;152535;-56
2022/06/13 13:00:06;;;;;;;;;;;;;;;21.88;42.55;102252.81;7272634;19;153859;-55
2022/06/13 13:03:02;;;;;;;;;;;;;;;21.88;43.15;102264.06;7279124;19;151931;-56
2022/06/13 13:05:55;;;;;;;;;;;;;;;21.87;43.33;102267.16;7277552;19;152162;-55
2022/06/13 13:08:46;;;;;;;;;;;;;;;21.86;43.15;102262.63;7278001;19;153207;-54
2022/06/13 13:11:41;;;;;;;;;;;;;;;21.85;43.22;102267.41;7279095;19;152448;-55
2022/06/13 13:14:37;;;;;;;;;;;;;;;21.88;40.11;102268.84;7284047;19;152613;-55
2022/06/13 13:17:27;;;;;;;;;;;;;;;21.88;40.50;102266.03;7278443;19;152010;-54